Terminal Aerodrome Forecast
Issued by NWS

Home | Current Version | Previous Version | Text Only | Print | Product List | Glossary On
Versions: 1 2 3 4 5 6 7 8 9 10 11 12 13
000
FTUS45 KRIW 262320
TAFWRL
TAF
KWRL 262320Z 2700/2724 VRB05KT P6SM FEW050 SCT080
     FM270900 36009KT P6SM VCSH SCT030 OVC050
     FM271800 33015G25KT 5SM -RA OVC020
     FM272100 33021G31KT 4SM -RA OVC012=

USA.gov is the U.S. government's official web portal to all federal, state and local government web resources and services.